sensor_id;sensor_type;location;lat;lon;timestamp;P1;durP1;ratioP1;P2;durP2;ratioP2
45065;SDS011;30830;53.704;10.004;2023-07-20T00:01:57;1.80;;;1.52;;
45065;SDS011;30830;53.704;10.004;2023-07-20T00:04:22;2.53;;;1.98;;
45065;SDS011;30830;53.704;10.004;2023-07-20T00:06:48;2.47;;;1.50;;
45065;SDS011;30830;53.704;10.004;2023-07-20T00:09:13;2.58;;;1.67;;
45065;SDS011;30830;53.704;10.004;2023-07-20T00:11:39;2.33;;;1.67;;
45065;SDS011;30830;53.704;10.004;2023-07-20T00:14:05;3.25;;;1.92;;
45065;SDS011;30830;53.704;10.004;2023-07-20T00:16:31;2.35;;;2.10;;
45065;SDS011;30830;53.704;10.004;2023-07-20T00:18:56;2.50;;;1.42;;
45065;SDS011;30830;53.704;10.004;2023-07-20T00:21:22;2.53;;;2.10;;
45065;SDS011;30830;53.704;10.004;2023-07-20T00:23:47;2.30;;;2.10;;
45065;SDS011;30830;53.704;10.004;2023-07-20T00:26:13;2.90;;;1.83;;
45065;SDS011;30830;53.704;10.004;2023-07-20T00:28:38;2.03;;;1.58;;
45065;SDS011;30830;53.704;10.004;2023-07-20T00:31:04;2.40;;;1.92;;
45065;SDS011;30830;53.704;10.004;2023-07-20T00:33:30;2.78;;;2.22;;
45065;SDS011;30830;53.704;10.004;2023-07-20T00:35:55;2.03;;;1.90;;
45065;SDS011;30830;53.704;10.004;2023-07-20T00:38:21;2.00;;;1.90;;
45065;SDS011;30830;53.704;10.004;2023-07-20T00:40:47;2.20;;;1.77;;
45065;SDS011;30830;53.704;10.004;2023-07-20T00:43:14;2.55;;;2.20;;
45065;SDS011;30830;53.704;10.004;2023-07-20T00:45:40;2.35;;;2.15;;
45065;SDS011;30830;53.704;10.004;2023-07-20T00:48:06;2.95;;;2.53;;
45065;SDS011;30830;53.704;10.004;2023-07-20T00:50:32;3.28;;;2.00;;
45065;SDS011;30830;53.704;10.004;2023-07-20T00:52:58;2.35;;;2.10;;
45065;SDS011;30830;53.704;10.004;2023-07-20T00:55:24;4.03;;;2.45;;
45065;SDS011;30830;53.704;10.004;2023-07-20T00:57:51;3.08;;;2.75;;
45065;SDS011;30830;53.704;10.004;2023-07-20T01:00:17;3.03;;;2.72;;
45065;SDS011;30830;53.704;10.004;2023-07-20T01:02:43;3.95;;;2.90;;
45065;SDS011;30830;53.704;10.004;2023-07-20T01:05:09;2.83;;;2.63;;
45065;SDS011;30830;53.704;10.004;2023-07-20T01:07:43;3.10;;;2.60;;
45065;SDS011;30830;53.704;10.004;2023-07-20T01:10:23;3.58;;;3.28;;
45065;SDS011;30830;53.704;10.004;2023-07-20T01:12:54;4.45;;;3.10;;
45065;SDS011;30830;53.704;10.004;2023-07-20T01:15:20;3.22;;;2.92;;
45065;SDS011;30830;53.704;10.004;2023-07-20T01:17:46;3.38;;;2.95;;
45065;SDS011;30830;53.704;10.004;2023-07-20T01:20:15;2.78;;;2.45;;
45065;SDS011;30830;53.704;10.004;2023-07-20T01:22:47;3.95;;;3.60;;
45065;SDS011;30830;53.704;10.004;2023-07-20T01:33:40;5.47;;;3.80;;
45065;SDS011;30830;53.704;10.004;2023-07-20T01:36:07;3.08;;;2.80;;
45065;SDS011;30830;53.704;10.004;2023-07-20T01:38:34;4.30;;;3.75;;
45065;SDS011;30830;53.704;10.004;2023-07-20T01:41:00;3.95;;;3.42;;
45065;SDS011;30830;53.704;10.004;2023-07-20T01:43:27;4.65;;;3.38;;
45065;SDS011;30830;53.704;10.004;2023-07-20T01:45:52;3.90;;;3.50;;
45065;SDS011;30830;53.704;10.004;2023-07-20T01:48:18;4.47;;;3.45;;
45065;SDS011;30830;53.704;10.004;2023-07-20T01:50:43;3.75;;;3.45;;
45065;SDS011;30830;53.704;10.004;2023-07-20T01:53:09;3.63;;;3.33;;
45065;SDS011;30830;53.704;10.004;2023-07-20T01:55:35;4.10;;;3.70;;
45065;SDS011;30830;53.704;10.004;2023-07-20T01:58:00;4.53;;;3.97;;
45065;SDS011;30830;53.704;10.004;2023-07-20T02:00:26;5.00;;;3.92;;
45065;SDS011;30830;53.704;10.004;2023-07-20T02:02:52;4.10;;;3.70;;
45065;SDS011;30830;53.704;10.004;2023-07-20T02:05:18;3.50;;;3.20;;
45065;SDS011;30830;53.704;10.004;2023-07-20T02:07:43;6.35;;;4.68;;
45065;SDS011;30830;53.704;10.004;2023-07-20T02:10:09;3.92;;;3.53;;
45065;SDS011;30830;53.704;10.004;2023-07-20T02:12:35;6.95;;;4.90;;
45065;SDS011;30830;53.704;10.004;2023-07-20T02:15:01;5.22;;;3.95;;
45065;SDS011;30830;53.704;10.004;2023-07-20T02:17:27;4.82;;;4.38;;
45065;SDS011;30830;53.704;10.004;2023-07-20T02:19:53;3.70;;;3.40;;
45065;SDS011;30830;53.704;10.004;2023-07-20T02:22:20;5.97;;;4.38;;
45065;SDS011;30830;53.704;10.004;2023-07-20T02:24:45;4.60;;;4.10;;
45065;SDS011;30830;53.704;10.004;2023-07-20T02:27:11;5.18;;;4.65;;
45065;SDS011;30830;53.704;10.004;2023-07-20T02:29:37;5.15;;;4.25;;
45065;SDS011;30830;53.704;10.004;2023-07-20T02:32:03;5.22;;;3.97;;
45065;SDS011;30830;53.704;10.004;2023-07-20T02:34:29;4.53;;;4.13;;
45065;SDS011;30830;53.704;10.004;2023-07-20T02:36:54;5.72;;;5.13;;
45065;SDS011;30830;53.704;10.004;2023-07-20T02:39:23;6.30;;;4.43;;
45065;SDS011;30830;53.704;10.004;2023-07-20T02:41:49;6.22;;;5.53;;
45065;SDS011;30830;53.704;10.004;2023-07-20T02:44:15;6.57;;;5.15;;
45065;SDS011;30830;53.704;10.004;2023-07-20T02:46:41;5.82;;;5.05;;
45065;SDS011;30830;53.704;10.004;2023-07-20T02:49:06;5.30;;;4.80;;
45065;SDS011;30830;53.704;10.004;2023-07-20T02:51:32;8.75;;;6.50;;
45065;SDS011;30830;53.704;10.004;2023-07-20T02:53:57;7.22;;;6.00;;
45065;SDS011;30830;53.704;10.004;2023-07-20T02:56:23;6.40;;;5.40;;
45065;SDS011;30830;53.704;10.004;2023-07-20T02:58:49;8.50;;;6.13;;
45065;SDS011;30830;53.704;10.004;2023-07-20T03:01:17;7.05;;;5.60;;
45065;SDS011;30830;53.704;10.004;2023-07-20T03:03:42;7.80;;;5.28;;
45065;SDS011;30830;53.704;10.004;2023-07-20T03:06:11;6.18;;;5.15;;
45065;SDS011;30830;53.704;10.004;2023-07-20T03:08:41;6.18;;;5.60;;
45065;SDS011;30830;53.704;10.004;2023-07-20T03:11:07;6.10;;;5.50;;
45065;SDS011;30830;53.704;10.004;2023-07-20T03:13:32;7.75;;;5.68;;
45065;SDS011;30830;53.704;10.004;2023-07-20T03:15:58;7.65;;;6.45;;
45065;SDS011;30830;53.704;10.004;2023-07-20T03:18:23;7.40;;;6.70;;
45065;SDS011;30830;53.704;10.004;2023-07-20T03:20:49;7.28;;;6.10;;
45065;SDS011;30830;53.704;10.004;2023-07-20T03:23:15;7.20;;;6.50;;
45065;SDS011;30830;53.704;10.004;2023-07-20T03:25:41;8.10;;;7.30;;
45065;SDS011;30830;53.704;10.004;2023-07-20T03:28:06;6.90;;;6.20;;
45065;SDS011;30830;53.704;10.004;2023-07-20T03:30:32;8.23;;;6.50;;
45065;SDS011;30830;53.704;10.004;2023-07-20T03:32:58;6.80;;;5.78;;
45065;SDS011;30830;53.704;10.004;2023-07-20T03:35:23;6.20;;;5.60;;
45065;SDS011;30830;53.704;10.004;2023-07-20T03:37:49;7.22;;;5.93;;
45065;SDS011;30830;53.704;10.004;2023-07-20T03:40:14;7.10;;;6.40;;
45065;SDS011;30830;53.704;10.004;2023-07-20T03:42:41;6.75;;;6.15;;
45065;SDS011;30830;53.704;10.004;2023-07-20T03:45:07;7.35;;;6.57;;
45065;SDS011;30830;53.704;10.004;2023-07-20T03:47:33;5.88;;;5.15;;
45065;SDS011;30830;53.704;10.004;2023-07-20T03:49:58;6.75;;;6.13;;
45065;SDS011;30830;53.704;10.004;2023-07-20T03:52:24;7.82;;;5.82;;
45065;SDS011;30830;53.704;10.004;2023-07-20T03:54:49;6.43;;;5.70;;
45065;SDS011;30830;53.704;10.004;2023-07-20T03:57:16;6.57;;;5.70;;
45065;SDS011;30830;53.704;10.004;2023-07-20T03:59:44;8.65;;;5.95;;
45065;SDS011;30830;53.704;10.004;2023-07-20T04:02:11;6.18;;;5.57;;
45065;SDS011;30830;53.704;10.004;2023-07-20T04:04:37;7.18;;;5.93;;
45065;SDS011;30830;53.704;10.004;2023-07-20T04:07:03;5.22;;;4.68;;
45065;SDS011;30830;53.704;10.004;2023-07-20T04:09:31;5.45;;;4.93;;
45065;SDS011;30830;53.704;10.004;2023-07-20T04:11:57;5.53;;;5.03;;
45065;SDS011;30830;53.704;10.004;2023-07-20T04:14:22;6.35;;;5.22;;
45065;SDS011;30830;53.704;10.004;2023-07-20T04:16:48;5.32;;;4.72;;
45065;SDS011;30830;53.704;10.004;2023-07-20T04:19:16;5.60;;;5.10;;
45065;SDS011;30830;53.704;10.004;2023-07-20T04:21:43;5.45;;;4.85;;
45065;SDS011;30830;53.704;10.004;2023-07-20T04:24:09;5.72;;;5.22;;
45065;SDS011;30830;53.704;10.004;2023-07-20T04:26:34;5.40;;;4.90;;
45065;SDS011;30830;53.704;10.004;2023-07-20T04:29:00;5.07;;;4.63;;
45065;SDS011;30830;53.704;10.004;2023-07-20T04:31:26;5.55;;;4.90;;
45065;SDS011;30830;53.704;10.004;2023-07-20T04:33:51;5.30;;;4.90;;
45065;SDS011;30830;53.704;10.004;2023-07-20T04:36:17;6.50;;;5.60;;
45065;SDS011;30830;53.704;10.004;2023-07-20T04:38:44;6.00;;;5.40;;
45065;SDS011;30830;53.704;10.004;2023-07-20T04:41:10;6.07;;;5.50;;
45065;SDS011;30830;53.704;10.004;2023-07-20T04:43:43;5.45;;;4.90;;
45065;SDS011;30830;53.704;10.004;2023-07-20T04:46:12;5.80;;;5.20;;
45065;SDS011;30830;53.704;10.004;2023-07-20T04:48:38;4.57;;;4.03;;
45065;SDS011;30830;53.704;10.004;2023-07-20T04:51:03;4.63;;;3.80;;
45065;SDS011;30830;53.704;10.004;2023-07-20T04:53:29;5.45;;;3.97;;
45065;SDS011;30830;53.704;10.004;2023-07-20T04:55:56;4.70;;;4.22;;
45065;SDS011;30830;53.704;10.004;2023-07-20T04:58:21;5.53;;;4.07;;
45065;SDS011;30830;53.704;10.004;2023-07-20T05:00:51;4.82;;;3.42;;
45065;SDS011;30830;53.704;10.004;2023-07-20T05:03:17;3.88;;;3.47;;
45065;SDS011;30830;53.704;10.004;2023-07-20T05:05:43;3.83;;;3.42;;
45065;SDS011;30830;53.704;10.004;2023-07-20T05:08:08;3.63;;;2.80;;
45065;SDS011;30830;53.704;10.004;2023-07-20T05:10:34;4.18;;;3.63;;
45065;SDS011;30830;53.704;10.004;2023-07-20T05:13:00;3.53;;;2.85;;
45065;SDS011;30830;53.704;10.004;2023-07-20T05:15:25;3.50;;;3.20;;
45065;SDS011;30830;53.704;10.004;2023-07-20T05:17:51;3.35;;;2.70;;
45065;SDS011;30830;53.704;10.004;2023-07-20T05:20:17;3.75;;;3.28;;
45065;SDS011;30830;53.704;10.004;2023-07-20T05:22:42;5.60;;;4.97;;
45065;SDS011;30830;53.704;10.004;2023-07-20T05:25:08;3.03;;;2.83;;
45065;SDS011;30830;53.704;10.004;2023-07-20T05:27:38;3.95;;;3.30;;
45065;SDS011;30830;53.704;10.004;2023-07-20T05:30:05;3.13;;;2.83;;
45065;SDS011;30830;53.704;10.004;2023-07-20T05:32:32;3.58;;;2.60;;
45065;SDS011;30830;53.704;10.004;2023-07-20T05:34:58;3.85;;;2.75;;
45065;SDS011;30830;53.704;10.004;2023-07-20T05:37:24;3.00;;;2.70;;
45065;SDS011;30830;53.704;10.004;2023-07-20T05:39:49;4.28;;;2.40;;
45065;SDS011;30830;53.704;10.004;2023-07-20T05:42:15;2.80;;;2.20;;
45065;SDS011;30830;53.704;10.004;2023-07-20T05:44:40;3.60;;;2.15;;
45065;SDS011;30830;53.704;10.004;2023-07-20T05:47:06;2.38;;;2.17;;
45065;SDS011;30830;53.704;10.004;2023-07-20T05:49:32;2.78;;;2.40;;
45065;SDS011;30830;53.704;10.004;2023-07-20T05:51:59;3.60;;;2.20;;
45065;SDS011;30830;53.704;10.004;2023-07-20T05:54:26;2.65;;;2.42;;
45065;SDS011;30830;53.704;10.004;2023-07-20T05:56:52;1.60;;;1.50;;
45065;SDS011;30830;53.704;10.004;2023-07-20T05:59:18;3.35;;;2.00;;
45065;SDS011;30830;53.704;10.004;2023-07-20T06:01:44;4.07;;;2.00;;
45065;SDS011;30830;53.704;10.004;2023-07-20T06:04:10;1.90;;;1.67;;
45065;SDS011;30830;53.704;10.004;2023-07-20T06:06:36;2.40;;;1.70;;
45065;SDS011;30830;53.704;10.004;2023-07-20T06:09:01;1.23;;;1.13;;
45065;SDS011;30830;53.704;10.004;2023-07-20T06:11:32;4.20;;;1.50;;
45065;SDS011;30830;53.704;10.004;2023-07-20T06:13:58;1.50;;;1.40;;
45065;SDS011;30830;53.704;10.004;2023-07-20T06:16:24;3.03;;;1.77;;
45065;SDS011;30830;53.704;10.004;2023-07-20T06:18:49;5.88;;;1.60;;
45065;SDS011;30830;53.704;10.004;2023-07-20T06:21:15;1.27;;;1.00;;
45065;SDS011;30830;53.704;10.004;2023-07-20T06:23:40;2.88;;;1.63;;
45065;SDS011;30830;53.704;10.004;2023-07-20T06:26:06;3.25;;;1.35;;
45065;SDS011;30830;53.704;10.004;2023-07-20T06:28:32;2.15;;;1.20;;
45065;SDS011;30830;53.704;10.004;2023-07-20T06:31:01;1.27;;;1.25;;
45065;SDS011;30830;53.704;10.004;2023-07-20T06:33:27;1.67;;;1.27;;
45065;SDS011;30830;53.704;10.004;2023-07-20T06:35:53;1.40;;;1.27;;
45065;SDS011;30830;53.704;10.004;2023-07-20T06:38:19;10.55;;;6.45;;
45065;SDS011;30830;53.704;10.004;2023-07-20T06:40:47;1.35;;;1.25;;
45065;SDS011;30830;53.704;10.004;2023-07-20T06:43:13;2.17;;;1.10;;
45065;SDS011;30830;53.704;10.004;2023-07-20T06:45:38;0.88;;;0.85;;
45065;SDS011;30830;53.704;10.004;2023-07-20T06:48:04;1.80;;;1.30;;
45065;SDS011;30830;53.704;10.004;2023-07-20T06:50:30;5.07;;;1.25;;
45065;SDS011;30830;53.704;10.004;2023-07-20T06:52:55;1.30;;;1.08;;
45065;SDS011;30830;53.704;10.004;2023-07-20T06:55:21;1.08;;;1.00;;
45065;SDS011;30830;53.704;10.004;2023-07-20T06:57:46;3.45;;;1.25;;
45065;SDS011;30830;53.704;10.004;2023-07-20T07:00:12;1.58;;;0.85;;
45065;SDS011;30830;53.704;10.004;2023-07-20T07:02:38;1.38;;;0.75;;
45065;SDS011;30830;53.704;10.004;2023-07-20T07:05:04;1.50;;;0.70;;
45065;SDS011;30830;53.704;10.004;2023-07-20T07:07:30;0.90;;;0.85;;
45065;SDS011;30830;53.704;10.004;2023-07-20T07:09:55;3.63;;;1.10;;
45065;SDS011;30830;53.704;10.004;2023-07-20T07:12:21;1.48;;;0.77;;
45065;SDS011;30830;53.704;10.004;2023-07-20T07:14:47;4.55;;;1.75;;
45065;SDS011;30830;53.704;10.004;2023-07-20T07:17:12;1.90;;;1.10;;
45065;SDS011;30830;53.704;10.004;2023-07-20T07:19:38;3.13;;;1.52;;
45065;SDS011;30830;53.704;10.004;2023-07-20T07:22:03;1.85;;;1.20;;
45065;SDS011;30830;53.704;10.004;2023-07-20T07:24:29;2.03;;;1.23;;
45065;SDS011;30830;53.704;10.004;2023-07-20T07:26:58;1.08;;;0.88;;
45065;SDS011;30830;53.704;10.004;2023-07-20T07:29:24;4.20;;;1.20;;
45065;SDS011;30830;53.704;10.004;2023-07-20T07:31:50;4.43;;;1.30;;
45065;SDS011;30830;53.704;10.004;2023-07-20T07:34:16;1.85;;;1.13;;
45065;SDS011;30830;53.704;10.004;2023-07-20T07:36:41;3.95;;;1.63;;
45065;SDS011;30830;53.704;10.004;2023-07-20T07:39:08;1.35;;;1.13;;
45065;SDS011;30830;53.704;10.004;2023-07-20T07:41:34;3.00;;;1.42;;
45065;SDS011;30830;53.704;10.004;2023-07-20T07:44:00;2.42;;;1.10;;
45065;SDS011;30830;53.704;10.004;2023-07-20T07:46:25;2.67;;;1.13;;
45065;SDS011;30830;53.704;10.004;2023-07-20T07:48:51;3.92;;;1.77;;
45065;SDS011;30830;53.704;10.004;2023-07-20T07:51:16;3.22;;;1.17;;
45065;SDS011;30830;53.704;10.004;2023-07-20T07:53:42;2.63;;;1.42;;
45065;SDS011;30830;53.704;10.004;2023-07-20T07:56:08;4.65;;;1.65;;
45065;SDS011;30830;53.704;10.004;2023-07-20T07:58:34;4.00;;;1.13;;
45065;SDS011;30830;53.704;10.004;2023-07-20T08:01:00;4.25;;;1.52;;
45065;SDS011;30830;53.704;10.004;2023-07-20T08:03:25;2.53;;;1.55;;
45065;SDS011;30830;53.704;10.004;2023-07-20T08:05:53;4.25;;;2.17;;
45065;SDS011;30830;53.704;10.004;2023-07-20T08:08:23;2.75;;;1.90;;
45065;SDS011;30830;53.704;10.004;2023-07-20T08:10:49;3.65;;;1.95;;
45065;SDS011;30830;53.704;10.004;2023-07-20T08:13:17;4.15;;;1.80;;
45065;SDS011;30830;53.704;10.004;2023-07-20T08:15:45;6.82;;;2.30;;
45065;SDS011;30830;53.704;10.004;2023-07-20T08:18:14;4.38;;;1.52;;
45065;SDS011;30830;53.704;10.004;2023-07-20T08:20:39;5.47;;;2.30;;
45065;SDS011;30830;53.704;10.004;2023-07-20T08:23:08;2.08;;;1.63;;
45065;SDS011;30830;53.704;10.004;2023-07-20T08:25:35;1.95;;;1.50;;
45065;SDS011;30830;53.704;10.004;2023-07-20T08:28:04;3.90;;;1.70;;
45065;SDS011;30830;53.704;10.004;2023-07-20T08:30:39;4.85;;;1.17;;
45065;SDS011;30830;53.704;10.004;2023-07-20T08:33:05;3.30;;;1.20;;
45065;SDS011;30830;53.704;10.004;2023-07-20T08:35:31;2.03;;;1.00;;
45065;SDS011;30830;53.704;10.004;2023-07-20T08:37:56;6.20;;;1.88;;
45065;SDS011;30830;53.704;10.004;2023-07-20T08:40:22;4.03;;;1.75;;
45065;SDS011;30830;53.704;10.004;2023-07-20T08:42:47;1.75;;;1.30;;
45065;SDS011;30830;53.704;10.004;2023-07-20T08:45:14;4.80;;;1.65;;
45065;SDS011;30830;53.704;10.004;2023-07-20T08:47:42;5.03;;;1.20;;
45065;SDS011;30830;53.704;10.004;2023-07-20T08:50:10;3.25;;;1.45;;
45065;SDS011;30830;53.704;10.004;2023-07-20T08:52:37;3.72;;;1.13;;
45065;SDS011;30830;53.704;10.004;2023-07-20T08:55:03;1.15;;;0.77;;
45065;SDS011;30830;53.704;10.004;2023-07-20T08:57:31;3.15;;;1.15;;
45065;SDS011;30830;53.704;10.004;2023-07-20T08:59:58;2.72;;;0.77;;
45065;SDS011;30830;53.704;10.004;2023-07-20T09:02:29;3.45;;;0.77;;
45065;SDS011;30830;53.704;10.004;2023-07-20T09:04:59;1.65;;;1.00;;
45065;SDS011;30830;53.704;10.004;2023-07-20T09:07:25;3.65;;;1.10;;
45065;SDS011;30830;53.704;10.004;2023-07-20T09:09:51;3.03;;;0.60;;
45065;SDS011;30830;53.704;10.004;2023-07-20T09:12:16;7.05;;;1.45;;
45065;SDS011;30830;53.704;10.004;2023-07-20T09:14:43;1.10;;;0.65;;
45065;SDS011;30830;53.704;10.004;2023-07-20T09:17:12;1.38;;;0.95;;
45065;SDS011;30830;53.704;10.004;2023-07-20T09:19:39;1.25;;;0.75;;
45065;SDS011;30830;53.704;10.004;2023-07-20T09:22:10;2.28;;;0.98;;
45065;SDS011;30830;53.704;10.004;2023-07-20T09:24:36;3.42;;;1.05;;
45065;SDS011;30830;53.704;10.004;2023-07-20T09:27:02;3.05;;;0.90;;
45065;SDS011;30830;53.704;10.004;2023-07-20T09:29:30;2.45;;;1.15;;
45065;SDS011;30830;53.704;10.004;2023-07-20T09:31:59;1.48;;;0.63;;
45065;SDS011;30830;53.704;10.004;2023-07-20T09:34:29;5.72;;;1.30;;
45065;SDS011;30830;53.704;10.004;2023-07-20T09:36:58;3.38;;;1.08;;
45065;SDS011;30830;53.704;10.004;2023-07-20T09:39:25;3.40;;;0.90;;
45065;SDS011;30830;53.704;10.004;2023-07-20T09:41:51;3.33;;;0.80;;
45065;SDS011;30830;53.704;10.004;2023-07-20T09:44:17;4.47;;;0.90;;
45065;SDS011;30830;53.704;10.004;2023-07-20T09:46:49;1.13;;;0.57;;
45065;SDS011;30830;53.704;10.004;2023-07-20T09:49:18;0.97;;;0.40;;
45065;SDS011;30830;53.704;10.004;2023-07-20T09:51:44;0.88;;;0.43;;
45065;SDS011;30830;53.704;10.004;2023-07-20T09:54:10;2.05;;;0.63;;
45065;SDS011;30830;53.704;10.004;2023-07-20T09:56:37;2.15;;;0.55;;
45065;SDS011;30830;53.704;10.004;2023-07-20T09:59:04;1.90;;;0.50;;
45065;SDS011;30830;53.704;10.004;2023-07-20T10:01:30;2.20;;;0.50;;
45065;SDS011;30830;53.704;10.004;2023-07-20T10:03:59;0.88;;;0.60;;
45065;SDS011;30830;53.704;10.004;2023-07-20T10:06:29;3.15;;;0.90;;
45065;SDS011;30830;53.704;10.004;2023-07-20T10:08:59;3.55;;;0.88;;
45065;SDS011;30830;53.704;10.004;2023-07-20T10:11:32;2.35;;;0.82;;
45065;SDS011;30830;53.704;10.004;2023-07-20T10:14:03;3.25;;;0.70;;
45065;SDS011;30830;53.704;10.004;2023-07-20T10:16:32;1.10;;;0.28;;
45065;SDS011;30830;53.704;10.004;2023-07-20T10:19:11;0.82;;;0.40;;
45065;SDS011;30830;53.704;10.004;2023-07-20T10:21:42;1.17;;;0.20;;
45065;SDS011;30830;53.704;10.004;2023-07-20T10:24:12;1.13;;;0.75;;
45065;SDS011;30830;53.704;10.004;2023-07-20T10:26:39;1.63;;;0.55;;
45065;SDS011;30830;53.704;10.004;2023-07-20T10:29:05;1.38;;;0.80;;
45065;SDS011;30830;53.704;10.004;2023-07-20T10:31:31;1.38;;;0.85;;
45065;SDS011;30830;53.704;10.004;2023-07-20T10:33:58;3.83;;;1.25;;
45065;SDS011;30830;53.704;10.004;2023-07-20T10:36:27;1.98;;;1.00;;
45065;SDS011;30830;53.704;10.004;2023-07-20T10:38:53;3.55;;;1.00;;
45065;SDS011;30830;53.704;10.004;2023-07-20T10:43:49;2.17;;;0.57;;
45065;SDS011;30830;53.704;10.004;2023-07-20T10:46:33;3.50;;;0.55;;
45065;SDS011;30830;53.704;10.004;2023-07-20T10:49:02;1.52;;;0.70;;
45065;SDS011;30830;53.704;10.004;2023-07-20T10:51:42;1.48;;;0.60;;
45065;SDS011;30830;53.704;10.004;2023-07-20T10:54:10;0.90;;;0.40;;
45065;SDS011;30830;53.704;10.004;2023-07-20T10:56:55;3.20;;;0.67;;
45065;SDS011;30830;53.704;10.004;2023-07-20T10:59:43;1.23;;;0.40;;
45065;SDS011;30830;53.704;10.004;2023-07-20T11:02:12;0.43;;;0.30;;
45065;SDS011;30830;53.704;10.004;2023-07-20T11:04:38;2.38;;;0.60;;
45065;SDS011;30830;53.704;10.004;2023-07-20T11:07:04;1.60;;;0.35;;
45065;SDS011;30830;53.704;10.004;2023-07-20T11:09:33;1.58;;;0.60;;
45065;SDS011;30830;53.704;10.004;2023-07-20T11:12:09;0.85;;;0.50;;
45065;SDS011;30830;53.704;10.004;2023-07-20T11:14:40;4.95;;;0.85;;
45065;SDS011;30830;53.704;10.004;2023-07-20T11:17:13;1.90;;;0.60;;
45065;SDS011;30830;53.704;10.004;2023-07-20T11:19:40;2.22;;;0.60;;
45065;SDS011;30830;53.704;10.004;2023-07-20T11:22:06;1.15;;;0.45;;
45065;SDS011;30830;53.704;10.004;2023-07-20T11:24:37;3.03;;;0.65;;
45065;SDS011;30830;53.704;10.004;2023-07-20T11:27:07;4.70;;;0.85;;
45065;SDS011;30830;53.704;10.004;2023-07-20T11:29:32;2.13;;;0.90;;
45065;SDS011;30830;53.704;10.004;2023-07-20T11:32:00;1.85;;;0.85;;
45065;SDS011;30830;53.704;10.004;2023-07-20T11:34:30;3.05;;;0.70;;
45065;SDS011;30830;53.704;10.004;2023-07-20T11:36:56;2.88;;;1.02;;
45065;SDS011;30830;53.704;10.004;2023-07-20T11:39:22;6.10;;;1.25;;
45065;SDS011;30830;53.704;10.004;2023-07-20T11:41:51;2.05;;;0.80;;
45065;SDS011;30830;53.704;10.004;2023-07-20T11:44:18;3.85;;;0.90;;
45065;SDS011;30830;53.704;10.004;2023-07-20T11:47:01;4.07;;;0.90;;
45065;SDS011;30830;53.704;10.004;2023-07-20T11:49:37;4.80;;;1.05;;
45065;SDS011;30830;53.704;10.004;2023-07-20T11:52:04;3.50;;;1.33;;
45065;SDS011;30830;53.704;10.004;2023-07-20T11:54:31;4.68;;;1.33;;
45065;SDS011;30830;53.704;10.004;2023-07-20T11:57:00;2.72;;;0.90;;
45065;SDS011;30830;53.704;10.004;2023-07-20T11:59:26;2.72;;;1.13;;
45065;SDS011;30830;53.704;10.004;2023-07-20T12:01:52;5.97;;;1.33;;
45065;SDS011;30830;53.704;10.004;2023-07-20T12:04:17;3.28;;;0.98;;
45065;SDS011;30830;53.704;10.004;2023-07-20T12:06:44;1.08;;;0.85;;
45065;SDS011;30830;53.704;10.004;2023-07-20T12:09:13;4.97;;;1.45;;
45065;SDS011;30830;53.704;10.004;2023-07-20T12:11:42;5.07;;;1.20;;
45065;SDS011;30830;53.704;10.004;2023-07-20T12:14:08;5.38;;;1.33;;
45065;SDS011;30830;53.704;10.004;2023-07-20T12:16:35;4.70;;;1.20;;
45065;SDS011;30830;53.704;10.004;2023-07-20T12:19:08;6.13;;;1.38;;
45065;SDS011;30830;53.704;10.004;2023-07-20T12:21:37;2.03;;;1.40;;
45065;SDS011;30830;53.704;10.004;2023-07-20T12:24:05;3.88;;;1.08;;
45065;SDS011;30830;53.704;10.004;2023-07-20T12:26:31;4.55;;;1.60;;
45065;SDS011;30830;53.704;10.004;2023-07-20T12:28:58;3.72;;;1.40;;
45065;SDS011;30830;53.704;10.004;2023-07-20T12:31:25;4.13;;;1.00;;
45065;SDS011;30830;53.704;10.004;2023-07-20T12:33:51;1.00;;;0.90;;
45065;SDS011;30830;53.704;10.004;2023-07-20T12:36:17;3.35;;;1.08;;
45065;SDS011;30830;53.704;10.004;2023-07-20T12:38:43;3.22;;;1.10;;
45065;SDS011;30830;53.704;10.004;2023-07-20T12:41:10;4.03;;;1.27;;
45065;SDS011;30830;53.704;10.004;2023-07-20T12:43:43;3.08;;;1.00;;
45065;SDS011;30830;53.704;10.004;2023-07-20T12:46:09;3.38;;;1.02;;
45065;SDS011;30830;53.704;10.004;2023-07-20T12:48:39;2.28;;;0.88;;
45065;SDS011;30830;53.704;10.004;2023-07-20T12:51:07;3.65;;;0.60;;
45065;SDS011;30830;53.704;10.004;2023-07-20T12:53:34;1.95;;;0.65;;
45065;SDS011;30830;53.704;10.004;2023-07-20T12:55:59;1.58;;;0.63;;
45065;SDS011;30830;53.704;10.004;2023-07-20T12:58:26;1.23;;;1.00;;
45065;SDS011;30830;53.704;10.004;2023-07-20T13:00:52;5.05;;;1.05;;
45065;SDS011;30830;53.704;10.004;2023-07-20T13:03:18;4.60;;;1.02;;
45065;SDS011;30830;53.704;10.004;2023-07-20T13:05:44;5.07;;;0.93;;
45065;SDS011;30830;53.704;10.004;2023-07-20T13:08:13;1.00;;;0.60;;
45065;SDS011;30830;53.704;10.004;2023-07-20T13:10:39;1.42;;;0.73;;
45065;SDS011;30830;53.704;10.004;2023-07-20T13:13:05;1.10;;;0.80;;
45065;SDS011;30830;53.704;10.004;2023-07-20T13:15:32;3.10;;;0.60;;
45065;SDS011;30830;53.704;10.004;2023-07-20T13:18:05;3.00;;;0.68;;
45065;SDS011;30830;53.704;10.004;2023-07-20T13:20:33;2.22;;;1.05;;
45065;SDS011;30830;53.704;10.004;2023-07-20T13:22:59;1.45;;;0.73;;
45065;SDS011;30830;53.704;10.004;2023-07-20T13:25:25;3.03;;;0.70;;
45065;SDS011;30830;53.704;10.004;2023-07-20T13:27:51;3.50;;;0.80;;
45065;SDS011;30830;53.704;10.004;2023-07-20T13:30:16;2.92;;;1.05;;
45065;SDS011;30830;53.704;10.004;2023-07-20T13:32:42;7.20;;;1.45;;
45065;SDS011;30830;53.704;10.004;2023-07-20T13:35:09;2.25;;;0.85;;
45065;SDS011;30830;53.704;10.004;2023-07-20T13:37:35;2.50;;;0.90;;
45065;SDS011;30830;53.704;10.004;2023-07-20T13:40:01;1.75;;;1.10;;
45065;SDS011;30830;53.704;10.004;2023-07-20T13:42:26;1.63;;;0.57;;
45065;SDS011;30830;53.704;10.004;2023-07-20T13:44:52;1.65;;;0.70;;
45065;SDS011;30830;53.704;10.004;2023-07-20T13:47:17;0.95;;;0.43;;
45065;SDS011;30830;53.704;10.004;2023-07-20T13:49:43;0.80;;;0.80;;
45065;SDS011;30830;53.704;10.004;2023-07-20T13:52:09;2.05;;;0.75;;
45065;SDS011;30830;53.704;10.004;2023-07-20T13:54:34;3.70;;;0.73;;
45065;SDS011;30830;53.704;10.004;2023-07-20T13:57:00;3.97;;;0.60;;
45065;SDS011;30830;53.704;10.004;2023-07-20T13:59:25;2.45;;;0.70;;
45065;SDS011;30830;53.704;10.004;2023-07-20T14:01:51;1.10;;;0.50;;
45065;SDS011;30830;53.704;10.004;2023-07-20T14:04:16;3.17;;;0.98;;
45065;SDS011;30830;53.704;10.004;2023-07-20T14:06:42;2.17;;;0.60;;
45065;SDS011;30830;53.704;10.004;2023-07-20T14:09:08;2.15;;;0.45;;
45065;SDS011;30830;53.704;10.004;2023-07-20T14:11:34;2.10;;;0.40;;
45065;SDS011;30830;53.704;10.004;2023-07-20T14:13:59;1.45;;;0.50;;
45065;SDS011;30830;53.704;10.004;2023-07-20T14:16:25;1.05;;;0.65;;
45065;SDS011;30830;53.704;10.004;2023-07-20T14:18:51;4.93;;;0.60;;
45065;SDS011;30830;53.704;10.004;2023-07-20T14:21:17;2.45;;;0.70;;
45065;SDS011;30830;53.704;10.004;2023-07-20T14:23:51;2.22;;;0.75;;
45065;SDS011;30830;53.704;10.004;2023-07-20T14:26:18;1.95;;;0.60;;
45065;SDS011;30830;53.704;10.004;2023-07-20T14:28:43;2.45;;;0.57;;
45065;SDS011;30830;53.704;10.004;2023-07-20T14:31:09;3.08;;;0.80;;
45065;SDS011;30830;53.704;10.004;2023-07-20T14:33:35;1.42;;;0.45;;
45065;SDS011;30830;53.704;10.004;2023-07-20T14:36:01;0.63;;;0.47;;
45065;SDS011;30830;53.704;10.004;2023-07-20T14:38:28;0.65;;;0.60;;
45065;SDS011;30830;53.704;10.004;2023-07-20T14:40:54;2.03;;;0.93;;
45065;SDS011;30830;53.704;10.004;2023-07-20T14:43:20;2.17;;;0.98;;